Ana Sayfa
METAR-TAF:

METAR-TAF

Havaalanları :

İncirlik Hava Üssü

İncirlik, Türkiye

Enlem: 37-00N, Boylam: 035-25E, yükseklik: 73 m

Güncel hava durumu gözlemi

Rapor saat 17:50 UTC de 20 dakika önce yapıldı.
Rüzgar güneydoğudan 2 kt
Sıcaklık 25°C
Nem 69%
Basınç 1014 hPa
Görüş mesafesi 10 km veya daha fazla
1500 m altında bulut yok ve kümülonimbus yok

METAR: LTAG 161750Z 13002KT CAVOK 25/19 Q1014 NOSIG

Saat: 21:10 (18:10 UTC)

Tahmin

Rapor saat 16:40 UTC de 1 saat ve 30 dakika önce yapıldı.
Ayın 16'si saat 18 UTC'den ayın 17'si saat 18 UTC'ye kadar geçerli Tahmin
Rüzgar değişken yönden 2 kt
Görüş mesafesi 10 km veya daha fazla
3500 ft yükseklikte parçalı bulutlu
10000 ft yükseklikte parçalı çok bulutlu

TAF: LTAG 161640Z 1618/1718 VRB02KT 9999 SCT035 BKN100

4.000'den fazla havaalanı için hava durumu gözlemleri ve tahminleri (METAR ve TAF raporları).

Kullanılabilir istasyonlar harita üzerinde sarı ve kırmızı noktalarla gösterilir.

İstasyonun adını görmek için fareyi noktanın üzerinde gezdirin.

Sonrasında hava gözlem ve tahminlerini görmek için tıklayın.

Haritayı değiştirmek için: yaklaştırmak için siyah artı işaretli yeşil düğmeye ve uzaklaştırmak için de eksi işaretli düğmeye hızla tıklayın; bitişik haritalar için yeşil okları kullanın.


METAR-TAF: